Leon Poseidon — D5AM9 — position and weather

sailwx.info

Track history (hours):
 
Tides and Currents Weather Stations Pressure Air Temp Water Temp Dewpoint Dewpoint Depression Visibility Wind Speed Wind Dir Waves Ship Positions

Leon Poseidon

Last reported at 2018-Apr-21 19:50 UTC. Time now 2018-Apr-25 21:42 UTC.
Position N 06°03' E 001°16'.

Length 149 m; draft 6 m.

Type: Tanker. MMSI: 636015403.

Date/timePositionNaut miles runAvg speedWind from/ knotsBaromVisibWave heightAir tempDewpointWater temp
2018-Apr-21 19:50N 06°03' E 001°16'4 0.3
2018-Apr-21 06:46N 05°59' E 001°17'0 0.0
2018-Apr-20 17:28N 05°59' E 001°17'0 0.7
2018-Apr-20 16:58N 05°60' E 001°17'2 4.2
2018-Apr-20 16:30N 06°02' E 001°17'3 5.0
2018-Apr-20 16:00N 06°04' E 001°16'2 4.2
2018-Apr-20 15:26N 06°06' E 001°16'0 0.0
2018-Apr-20 07:11N 06°06' E 001°16'0 0.0
2018-Apr-20 06:59N 06°06' E 001°16'0 0.0
2018-Apr-20 06:26N 06°06' E 001°16'0 0.0
2018-Apr-20 02:05N 06°06' E 001°16'0 0.0
2018-Apr-20 01:44N 06°06' E 001°16'0 0.0
2018-Apr-20 00:14N 06°06' E 001°16'0 0.0
2018-Apr-19 23:59N 06°06' E 001°16'0 0.0
2018-Apr-19 23:23N 06°06' E 001°16'0 0.0
2018-Apr-19 21:59N 06°06' E 001°16'0 0.0
2018-Apr-19 19:08N 06°06' E 001°16'0 0.0
2018-Apr-19 18:59N 06°06' E 001°16'0 0.0
2018-Apr-19 18:29N 06°06' E 001°16'0 0.0
2018-Apr-19 17:59N 06°06' E 001°16'0 0.0
2018-Apr-19 17:26N 06°06' E 001°16'5 0.1
2018-Apr-17 21:57N 06°02' E 001°14'1 1.9
2018-Apr-17 21:25N 06°02' E 001°15'4 9.1
2018-Apr-17 21:00N 05°59' E 001°18'  
Track history (hours):
 
Tides and Currents Weather Stations Pressure Air Temp Water Temp Dewpoint Dewpoint Depression Visibility Wind Speed Wind Dir Waves Ship Positions

Leon Poseidon

Last reported at 2018-Apr-21 19:50 UTC. Time now 2018-Apr-25 21:42 UTC.
Position N 06°03' E 001°16'.

Length 149 m; draft 6 m.

Type: Tanker. MMSI: 636015403.

Date/timePositionNaut miles runAvg speedWind from/ knotsBaromVisibWave heightAir tempDewpointWater temp
2018-Apr-21 19:50N 06°03' E 001°16'4 0.3
2018-Apr-21 06:46N 05°59' E 001°17'0 0.0
2018-Apr-20 17:28N 05°59' E 001°17'0 0.7
2018-Apr-20 16:58N 05°60' E 001°17'2 4.2
2018-Apr-20 16:30N 06°02' E 001°17'3 5.0
2018-Apr-20 16:00N 06°04' E 001°16'2 4.2
2018-Apr-20 15:26N 06°06' E 001°16'0 0.0
2018-Apr-20 07:11N 06°06' E 001°16'0 0.0
2018-Apr-20 06:59N 06°06' E 001°16'0 0.0
2018-Apr-20 06:26N 06°06' E 001°16'0 0.0
2018-Apr-20 02:05N 06°06' E 001°16'0 0.0
2018-Apr-20 01:44N 06°06' E 001°16'0 0.0
2018-Apr-20 00:14N 06°06' E 001°16'0 0.0
2018-Apr-19 23:59N 06°06' E 001°16'0 0.0
2018-Apr-19 23:23N 06°06' E 001°16'0 0.0
2018-Apr-19 21:59N 06°06' E 001°16'0 0.0
2018-Apr-19 19:08N 06°06' E 001°16'0 0.0
2018-Apr-19 18:59N 06°06' E 001°16'0 0.0
2018-Apr-19 18:29N 06°06' E 001°16'0 0.0
2018-Apr-19 17:59N 06°06' E 001°16'0 0.0
2018-Apr-19 17:26N 06°06' E 001°16'5 0.1
2018-Apr-17 21:57N 06°02' E 001°14'1 1.9
2018-Apr-17 21:25N 06°02' E 001°15'4 9.1
2018-Apr-17 21:00N 05°59' E 001°18'  

Dump ship's entire track history